Terminal Aerodrome Forecast
Issued by NWS Twin Cities, MN

Home | Current Version | Previous Version | Text Only | Print | Product List | Glossary On
Versions: 1 2 3 4 5 6 7 8 9 10 11 12 13 14 15 16 17 18 19 20 21 22 23 24
883
FTUS43 KMPX 221454 AAA
TAFMSP
TAF AMD
KMSP 221454Z 2215/2318 11004KT P6SM SKC
     FM221900 13007KT P6SM SKC
     FM230900 20003KT P6SM SCT250
     FM231500 20007KT P6SM BKN080 OVC120=

USA.gov is the U.S. government's official web portal to all federal, state and local government web resources and services.